sensor_id;sensor_type;location;lat;lon;timestamp;temperature;humidity
1878;DHT22;939;51.426;6.972;2024-02-26T00:02:23;8.20;99.90
1878;DHT22;939;51.426;6.972;2024-02-26T00:04:50;8.20;99.90
1878;DHT22;939;51.426;6.972;2024-02-26T00:07:17;8.10;99.90
1878;DHT22;939;51.426;6.972;2024-02-26T00:09:44;8.10;99.90
1878;DHT22;939;51.426;6.972;2024-02-26T00:12:13;8.00;99.90
1878;DHT22;939;51.426;6.972;2024-02-26T00:14:41;8.00;99.90
1878;DHT22;939;51.426;6.972;2024-02-26T00:17:10;8.00;99.90
1878;DHT22;939;51.426;6.972;2024-02-26T00:19:37;8.00;99.90
1878;DHT22;939;51.426;6.972;2024-02-26T00:22:05;8.00;99.90
1878;DHT22;939;51.426;6.972;2024-02-26T00:24:32;8.00;99.90
1878;DHT22;939;51.426;6.972;2024-02-26T00:26:59;7.70;99.90
1878;DHT22;939;51.426;6.972;2024-02-26T00:29:26;7.70;99.90
1878;DHT22;939;51.426;6.972;2024-02-26T00:31:54;7.60;99.90
1878;DHT22;939;51.426;6.972;2024-02-26T00:34:21;7.80;99.90
1878;DHT22;939;51.426;6.972;2024-02-26T00:36:48;7.90;99.90
1878;DHT22;939;51.426;6.972;2024-02-26T00:39:15;7.90;99.90
1878;DHT22;939;51.426;6.972;2024-02-26T00:41:41;7.90;99.90
1878;DHT22;939;51.426;6.972;2024-02-26T00:44:08;8.00;99.90
1878;DHT22;939;51.426;6.972;2024-02-26T00:46:35;8.00;99.90
1878;DHT22;939;51.426;6.972;2024-02-26T00:49:03;8.00;99.90
1878;DHT22;939;51.426;6.972;2024-02-26T00:51:30;8.10;99.90
1878;DHT22;939;51.426;6.972;2024-02-26T00:53:57;8.10;99.90
1878;DHT22;939;51.426;6.972;2024-02-26T00:56:24;8.10;99.90
1878;DHT22;939;51.426;6.972;2024-02-26T00:58:51;8.10;99.90
1878;DHT22;939;51.426;6.972;2024-02-26T01:01:18;8.10;99.90
1878;DHT22;939;51.426;6.972;2024-02-26T01:03:45;8.10;99.90
1878;DHT22;939;51.426;6.972;2024-02-26T01:06:13;7.90;99.90
1878;DHT22;939;51.426;6.972;2024-02-26T01:08:40;7.80;99.90
1878;DHT22;939;51.426;6.972;2024-02-26T01:11:07;7.60;99.90
1878;DHT22;939;51.426;6.972;2024-02-26T01:13:34;7.50;99.90
1878;DHT22;939;51.426;6.972;2024-02-26T01:16:01;7.70;99.90
1878;DHT22;939;51.426;6.972;2024-02-26T01:18:28;7.70;99.90
1878;DHT22;939;51.426;6.972;2024-02-26T01:20:54;7.80;99.90
1878;DHT22;939;51.426;6.972;2024-02-26T01:23:23;7.70;99.90
1878;DHT22;939;51.426;6.972;2024-02-26T01:25:49;7.90;99.90
1878;DHT22;939;51.426;6.972;2024-02-26T01:28:17;7.80;99.90
1878;DHT22;939;51.426;6.972;2024-02-26T01:30:44;7.90;99.90
1878;DHT22;939;51.426;6.972;2024-02-26T01:33:10;7.80;99.90
1878;DHT22;939;51.426;6.972;2024-02-26T01:35:37;7.80;99.90
1878;DHT22;939;51.426;6.972;2024-02-26T01:38:05;7.90;99.90
1878;DHT22;939;51.426;6.972;2024-02-26T01:40:33;8.00;99.90
1878;DHT22;939;51.426;6.972;2024-02-26T01:43:00;8.00;99.90
1878;DHT22;939;51.426;6.972;2024-02-26T01:45:27;8.00;99.90
1878;DHT22;939;51.426;6.972;2024-02-26T01:47:57;8.00;99.90
1878;DHT22;939;51.426;6.972;2024-02-26T01:50:24;8.10;99.90
1878;DHT22;939;51.426;6.972;2024-02-26T01:52:52;8.10;99.90
1878;DHT22;939;51.426;6.972;2024-02-26T01:55:20;8.10;99.90
1878;DHT22;939;51.426;6.972;2024-02-26T01:57:51;8.10;99.90
1878;DHT22;939;51.426;6.972;2024-02-26T02:00:18;8.10;99.90
1878;DHT22;939;51.426;6.972;2024-02-26T02:02:46;8.10;99.90
1878;DHT22;939;51.426;6.972;2024-02-26T02:05:15;8.20;99.90
1878;DHT22;939;51.426;6.972;2024-02-26T02:07:43;8.20;99.90
1878;DHT22;939;51.426;6.972;2024-02-26T02:10:10;8.20;99.90
1878;DHT22;939;51.426;6.972;2024-02-26T02:12:37;8.30;99.90
1878;DHT22;939;51.426;6.972;2024-02-26T02:15:07;8.20;99.90
1878;DHT22;939;51.426;6.972;2024-02-26T02:17:34;8.20;99.90
1878;DHT22;939;51.426;6.972;2024-02-26T02:20:01;8.20;99.90
1878;DHT22;939;51.426;6.972;2024-02-26T02:22:30;8.30;99.90
1878;DHT22;939;51.426;6.972;2024-02-26T02:24:58;8.30;99.90
1878;DHT22;939;51.426;6.972;2024-02-26T02:27:26;8.30;99.90
1878;DHT22;939;51.426;6.972;2024-02-26T02:29:53;8.30;99.90
1878;DHT22;939;51.426;6.972;2024-02-26T02:32:21;8.30;99.90
1878;DHT22;939;51.426;6.972;2024-02-26T02:34:48;8.30;99.90
1878;DHT22;939;51.426;6.972;2024-02-26T02:37:15;8.30;99.90
1878;DHT22;939;51.426;6.972;2024-02-26T02:39:43;8.30;99.90
1878;DHT22;939;51.426;6.972;2024-02-26T02:42:10;8.30;99.90
1878;DHT22;939;51.426;6.972;2024-02-26T02:44:37;8.30;99.90
1878;DHT22;939;51.426;6.972;2024-02-26T02:47:04;8.30;99.90
1878;DHT22;939;51.426;6.972;2024-02-26T02:49:31;8.30;99.90
1878;DHT22;939;51.426;6.972;2024-02-26T02:51:58;8.30;99.90
1878;DHT22;939;51.426;6.972;2024-02-26T02:54:25;8.30;99.90
1878;DHT22;939;51.426;6.972;2024-02-26T02:56:53;8.30;99.90
1878;DHT22;939;51.426;6.972;2024-02-26T02:59:20;8.30;99.90
1878;DHT22;939;51.426;6.972;2024-02-26T03:01:47;8.30;99.90
1878;DHT22;939;51.426;6.972;2024-02-26T03:04:13;8.30;99.90
1878;DHT22;939;51.426;6.972;2024-02-26T03:06:40;8.20;99.90
1878;DHT22;939;51.426;6.972;2024-02-26T03:09:07;8.30;99.90
1878;DHT22;939;51.426;6.972;2024-02-26T03:11:34;8.30;99.90
1878;DHT22;939;51.426;6.972;2024-02-26T03:14:03;8.30;99.90
1878;DHT22;939;51.426;6.972;2024-02-26T03:19:50;8.30;99.90
1878;DHT22;939;51.426;6.972;2024-02-26T03:22:19;8.30;99.90
1878;DHT22;939;51.426;6.972;2024-02-26T03:24:46;8.30;99.90
1878;DHT22;939;51.426;6.972;2024-02-26T03:27:13;8.30;99.90
1878;DHT22;939;51.426;6.972;2024-02-26T03:29:41;8.30;99.90
1878;DHT22;939;51.426;6.972;2024-02-26T03:32:08;8.30;99.90
1878;DHT22;939;51.426;6.972;2024-02-26T03:34:35;8.30;99.90
1878;DHT22;939;51.426;6.972;2024-02-26T03:37:04;8.20;99.90
1878;DHT22;939;51.426;6.972;2024-02-26T03:39:31;8.20;99.90
1878;DHT22;939;51.426;6.972;2024-02-26T03:41:58;8.00;99.90
1878;DHT22;939;51.426;6.972;2024-02-26T03:44:25;7.90;99.90
1878;DHT22;939;51.426;6.972;2024-02-26T03:46:53;7.90;99.90
1878;DHT22;939;51.426;6.972;2024-02-26T03:49:21;7.90;99.90
1878;DHT22;939;51.426;6.972;2024-02-26T03:51:48;7.90;99.90
1878;DHT22;939;51.426;6.972;2024-02-26T03:54:15;7.80;99.90
1878;DHT22;939;51.426;6.972;2024-02-26T03:56:42;7.90;99.90
1878;DHT22;939;51.426;6.972;2024-02-26T03:59:09;7.90;99.90
1878;DHT22;939;51.426;6.972;2024-02-26T04:01:35;7.90;99.90
1878;DHT22;939;51.426;6.972;2024-02-26T04:04:04;7.90;99.90
1878;DHT22;939;51.426;6.972;2024-02-26T04:06:31;7.90;99.90
1878;DHT22;939;51.426;6.972;2024-02-26T04:08:57;7.90;99.90
1878;DHT22;939;51.426;6.972;2024-02-26T04:11:24;7.90;99.90
1878;DHT22;939;51.426;6.972;2024-02-26T04:13:51;7.90;99.90
1878;DHT22;939;51.426;6.972;2024-02-26T04:16:18;7.90;99.90
1878;DHT22;939;51.426;6.972;2024-02-26T04:18:45;7.90;99.90
1878;DHT22;939;51.426;6.972;2024-02-26T04:21:14;7.90;99.90
1878;DHT22;939;51.426;6.972;2024-02-26T04:23:41;7.90;99.90
1878;DHT22;939;51.426;6.972;2024-02-26T04:26:08;7.80;99.90
1878;DHT22;939;51.426;6.972;2024-02-26T04:28:34;7.80;99.90
1878;DHT22;939;51.426;6.972;2024-02-26T04:31:01;7.80;99.90
1878;DHT22;939;51.426;6.972;2024-02-26T04:33:28;7.80;99.90
1878;DHT22;939;51.426;6.972;2024-02-26T04:35:55;7.70;99.90
1878;DHT22;939;51.426;6.972;2024-02-26T04:38:23;7.70;99.90
1878;DHT22;939;51.426;6.972;2024-02-26T04:40:50;7.70;99.90
1878;DHT22;939;51.426;6.972;2024-02-26T04:43:17;7.70;99.90
1878;DHT22;939;51.426;6.972;2024-02-26T04:45:45;7.70;99.90
1878;DHT22;939;51.426;6.972;2024-02-26T04:48:12;7.60;99.90
1878;DHT22;939;51.426;6.972;2024-02-26T04:50:38;7.60;99.90
1878;DHT22;939;51.426;6.972;2024-02-26T04:53:04;7.60;99.90
1878;DHT22;939;51.426;6.972;2024-02-26T04:55:32;7.60;99.90
1878;DHT22;939;51.426;6.972;2024-02-26T04:57:59;7.70;99.90
1878;DHT22;939;51.426;6.972;2024-02-26T05:00:26;7.60;99.90
1878;DHT22;939;51.426;6.972;2024-02-26T05:02:52;7.60;99.90
1878;DHT22;939;51.426;6.972;2024-02-26T05:05:19;7.70;99.90
1878;DHT22;939;51.426;6.972;2024-02-26T05:07:46;7.70;99.90
1878;DHT22;939;51.426;6.972;2024-02-26T05:10:13;7.50;99.90
1878;DHT22;939;51.426;6.972;2024-02-26T05:12:41;7.50;99.90
1878;DHT22;939;51.426;6.972;2024-02-26T05:15:09;7.50;99.90
1878;DHT22;939;51.426;6.972;2024-02-26T05:17:36;7.50;99.90
1878;DHT22;939;51.426;6.972;2024-02-26T05:20:03;7.50;99.90
1878;DHT22;939;51.426;6.972;2024-02-26T05:22:33;7.50;99.90
1878;DHT22;939;51.426;6.972;2024-02-26T05:25:00;7.50;99.90
1878;DHT22;939;51.426;6.972;2024-02-26T05:27:27;7.50;99.90
1878;DHT22;939;51.426;6.972;2024-02-26T05:29:55;7.50;99.90
1878;DHT22;939;51.426;6.972;2024-02-26T05:32:22;7.50;99.90
1878;DHT22;939;51.426;6.972;2024-02-26T05:34:49;7.50;99.90
1878;DHT22;939;51.426;6.972;2024-02-26T05:37:16;7.60;99.90
1878;DHT22;939;51.426;6.972;2024-02-26T05:39:42;7.50;99.90
1878;DHT22;939;51.426;6.972;2024-02-26T05:42:09;7.50;99.90
1878;DHT22;939;51.426;6.972;2024-02-26T05:44:36;7.60;99.90
1878;DHT22;939;51.426;6.972;2024-02-26T05:47:04;7.60;99.90
1878;DHT22;939;51.426;6.972;2024-02-26T05:49:31;7.50;99.90
1878;DHT22;939;51.426;6.972;2024-02-26T05:51:59;7.50;99.90
1878;DHT22;939;51.426;6.972;2024-02-26T05:54:25;7.50;99.90
1878;DHT22;939;51.426;6.972;2024-02-26T05:56:52;7.40;99.90
1878;DHT22;939;51.426;6.972;2024-02-26T05:59:19;7.30;99.90
1878;DHT22;939;51.426;6.972;2024-02-26T06:01:46;7.40;99.90
1878;DHT22;939;51.426;6.972;2024-02-26T06:04:14;7.40;99.90
1878;DHT22;939;51.426;6.972;2024-02-26T06:06:42;7.40;99.90
1878;DHT22;939;51.426;6.972;2024-02-26T06:09:09;7.40;99.90
1878;DHT22;939;51.426;6.972;2024-02-26T06:11:36;7.50;99.90
1878;DHT22;939;51.426;6.972;2024-02-26T06:14:03;7.40;99.90
1878;DHT22;939;51.426;6.972;2024-02-26T06:16:30;7.50;99.90
1878;DHT22;939;51.426;6.972;2024-02-26T06:18:57;7.40;99.90
1878;DHT22;939;51.426;6.972;2024-02-26T06:21:27;7.50;99.90
1878;DHT22;939;51.426;6.972;2024-02-26T06:23:53;7.50;99.90
1878;DHT22;939;51.426;6.972;2024-02-26T06:26:20;7.50;99.90
1878;DHT22;939;51.426;6.972;2024-02-26T06:28:47;7.50;99.90
1878;DHT22;939;51.426;6.972;2024-02-26T06:31:14;7.50;99.90
1878;DHT22;939;51.426;6.972;2024-02-26T06:33:41;7.50;99.90
1878;DHT22;939;51.426;6.972;2024-02-26T06:36:07;7.40;99.90
1878;DHT22;939;51.426;6.972;2024-02-26T06:38:36;7.40;99.90
1878;DHT22;939;51.426;6.972;2024-02-26T06:41:03;7.30;99.90
1878;DHT22;939;51.426;6.972;2024-02-26T06:43:30;7.30;99.90
1878;DHT22;939;51.426;6.972;2024-02-26T06:45:56;7.40;99.90
1878;DHT22;939;51.426;6.972;2024-02-26T06:48:24;7.40;99.90
1878;DHT22;939;51.426;6.972;2024-02-26T06:50:51;7.50;99.90
1878;DHT22;939;51.426;6.972;2024-02-26T06:53:17;7.50;99.90
1878;DHT22;939;51.426;6.972;2024-02-26T06:55:46;7.50;99.90
1878;DHT22;939;51.426;6.972;2024-02-26T06:58:13;7.50;99.90
1878;DHT22;939;51.426;6.972;2024-02-26T07:00:40;7.60;99.90
1878;DHT22;939;51.426;6.972;2024-02-26T07:03:06;7.50;99.90
1878;DHT22;939;51.426;6.972;2024-02-26T07:05:34;7.50;99.90
1878;DHT22;939;51.426;6.972;2024-02-26T07:08:01;7.50;99.90
1878;DHT22;939;51.426;6.972;2024-02-26T07:10:27;7.40;99.90
1878;DHT22;939;51.426;6.972;2024-02-26T07:12:56;7.50;99.90
1878;DHT22;939;51.426;6.972;2024-02-26T07:15:22;7.60;99.90
1878;DHT22;939;51.426;6.972;2024-02-26T07:17:49;7.50;99.90
1878;DHT22;939;51.426;6.972;2024-02-26T07:20:16;7.60;99.90
1878;DHT22;939;51.426;6.972;2024-02-26T07:22:44;7.60;99.90
1878;DHT22;939;51.426;6.972;2024-02-26T07:25:10;7.60;99.90
1878;DHT22;939;51.426;6.972;2024-02-26T07:27:39;7.60;99.90
1878;DHT22;939;51.426;6.972;2024-02-26T07:30:09;7.70;99.90
1878;DHT22;939;51.426;6.972;2024-02-26T07:32:37;7.70;99.90
1878;DHT22;939;51.426;6.972;2024-02-26T07:35:05;7.60;99.90
1878;DHT22;939;51.426;6.972;2024-02-26T07:37:31;7.40;99.90
1878;DHT22;939;51.426;6.972;2024-02-26T07:39:58;7.50;99.90
1878;DHT22;939;51.426;6.972;2024-02-26T07:42:25;7.50;99.90
1878;DHT22;939;51.426;6.972;2024-02-26T07:44:52;7.50;99.90
1878;DHT22;939;51.426;6.972;2024-02-26T07:47:20;7.50;99.90
1878;DHT22;939;51.426;6.972;2024-02-26T07:49:47;7.40;99.90
1878;DHT22;939;51.426;6.972;2024-02-26T07:52:14;7.50;99.90
1878;DHT22;939;51.426;6.972;2024-02-26T07:54:41;7.50;99.90
1878;DHT22;939;51.426;6.972;2024-02-26T07:57:08;7.50;99.90
1878;DHT22;939;51.426;6.972;2024-02-26T07:59:34;7.50;99.90
1878;DHT22;939;51.426;6.972;2024-02-26T08:02:01;7.60;99.90
1878;DHT22;939;51.426;6.972;2024-02-26T08:04:30;7.50;99.90
1878;DHT22;939;51.426;6.972;2024-02-26T08:06:57;7.50;99.90
1878;DHT22;939;51.426;6.972;2024-02-26T08:09:23;7.50;99.90
1878;DHT22;939;51.426;6.972;2024-02-26T08:11:50;7.30;99.90
1878;DHT22;939;51.426;6.972;2024-02-26T08:14:17;7.30;99.90
1878;DHT22;939;51.426;6.972;2024-02-26T08:16:44;7.30;99.90
1878;DHT22;939;51.426;6.972;2024-02-26T08:19:11;7.30;99.90
1878;DHT22;939;51.426;6.972;2024-02-26T08:21:41;7.50;99.90
1878;DHT22;939;51.426;6.972;2024-02-26T08:24:08;7.50;99.90
1878;DHT22;939;51.426;6.972;2024-02-26T08:26:35;7.60;99.90
1878;DHT22;939;51.426;6.972;2024-02-26T08:29:02;7.60;99.90
1878;DHT22;939;51.426;6.972;2024-02-26T08:31:29;7.60;99.90
1878;DHT22;939;51.426;6.972;2024-02-26T08:33:56;7.60;99.90
1878;DHT22;939;51.426;6.972;2024-02-26T08:36:23;7.60;99.90
1878;DHT22;939;51.426;6.972;2024-02-26T08:38:52;7.50;99.90
1878;DHT22;939;51.426;6.972;2024-02-26T08:41:19;7.60;99.90
1878;DHT22;939;51.426;6.972;2024-02-26T08:43:45;7.60;99.90
1878;DHT22;939;51.426;6.972;2024-02-26T17:36:59;8.60;99.90
1878;DHT22;939;51.426;6.972;2024-02-26T17:39:25;8.60;99.90
1878;DHT22;939;51.426;6.972;2024-02-26T17:41:52;8.40;99.90
1878;DHT22;939;51.426;6.972;2024-02-26T17:44:20;8.30;99.90
1878;DHT22;939;51.426;6.972;2024-02-26T17:46:50;8.40;99.90
1878;DHT22;939;51.426;6.972;2024-02-26T17:49:18;8.40;99.90
1878;DHT22;939;51.426;6.972;2024-02-26T17:51:49;8.40;99.90
1878;DHT22;939;51.426;6.972;2024-02-26T17:54:17;8.30;99.90
1878;DHT22;939;51.426;6.972;2024-02-26T17:56:44;8.30;99.90
1878;DHT22;939;51.426;6.972;2024-02-26T17:59:11;8.30;99.90
1878;DHT22;939;51.426;6.972;2024-02-26T18:01:38;8.30;99.90
1878;DHT22;939;51.426;6.972;2024-02-26T18:04:05;8.30;99.90
1878;DHT22;939;51.426;6.972;2024-02-26T18:06:32;8.20;99.90
1878;DHT22;939;51.426;6.972;2024-02-26T18:08:59;8.30;99.90
1878;DHT22;939;51.426;6.972;2024-02-26T18:11:27;8.30;99.90
1878;DHT22;939;51.426;6.972;2024-02-26T18:13:55;8.40;99.90
1878;DHT22;939;51.426;6.972;2024-02-26T18:16:22;8.40;99.90
1878;DHT22;939;51.426;6.972;2024-02-26T18:18:49;8.50;99.90
1878;DHT22;939;51.426;6.972;2024-02-26T18:21:16;8.50;99.90
1878;DHT22;939;51.426;6.972;2024-02-26T18:23:46;8.50;99.90
1878;DHT22;939;51.426;6.972;2024-02-26T18:26:13;8.40;99.90
1878;DHT22;939;51.426;6.972;2024-02-26T18:28:46;8.40;99.90
1878;DHT22;939;51.426;6.972;2024-02-26T18:31:13;8.50;99.90
1878;DHT22;939;51.426;6.972;2024-02-26T18:33:39;8.50;99.90
1878;DHT22;939;51.426;6.972;2024-02-26T18:36:07;8.60;99.90
1878;DHT22;939;51.426;6.972;2024-02-26T18:38:34;8.60;99.90
1878;DHT22;939;51.426;6.972;2024-02-26T18:41:02;8.60;99.90
1878;DHT22;939;51.426;6.972;2024-02-26T18:43:29;8.60;99.90
1878;DHT22;939;51.426;6.972;2024-02-26T18:45:58;8.50;99.90
1878;DHT22;939;51.426;6.972;2024-02-26T18:48:24;8.40;99.90
1878;DHT22;939;51.426;6.972;2024-02-26T18:50:52;8.40;99.90
1878;DHT22;939;51.426;6.972;2024-02-26T18:53:18;8.40;99.90
1878;DHT22;939;51.426;6.972;2024-02-26T18:55:45;8.40;99.90
1878;DHT22;939;51.426;6.972;2024-02-26T18:58:12;8.50;99.90
1878;DHT22;939;51.426;6.972;2024-02-26T19:00:39;8.50;99.90
1878;DHT22;939;51.426;6.972;2024-02-26T19:03:07;8.40;99.90
1878;DHT22;939;51.426;6.972;2024-02-26T19:05:34;8.40;99.90
1878;DHT22;939;51.426;6.972;2024-02-26T19:08:01;8.30;99.90
1878;DHT22;939;51.426;6.972;2024-02-26T19:10:28;8.40;99.90
1878;DHT22;939;51.426;6.972;2024-02-26T19:12:55;8.50;99.90
1878;DHT22;939;51.426;6.972;2024-02-26T19:15:23;8.50;99.90
1878;DHT22;939;51.426;6.972;2024-02-26T19:17:50;8.40;99.90
1878;DHT22;939;51.426;6.972;2024-02-26T19:20:19;8.40;99.90
1878;DHT22;939;51.426;6.972;2024-02-26T19:22:46;8.30;99.90
1878;DHT22;939;51.426;6.972;2024-02-26T19:25:14;8.40;99.90
1878;DHT22;939;51.426;6.972;2024-02-26T19:27:41;8.40;99.90
1878;DHT22;939;51.426;6.972;2024-02-26T19:30:09;8.40;99.90
1878;DHT22;939;51.426;6.972;2024-02-26T19:32:36;8.40;99.90
1878;DHT22;939;51.426;6.972;2024-02-26T19:35:04;8.30;99.90
1878;DHT22;939;51.426;6.972;2024-02-26T19:37:33;8.30;99.90
1878;DHT22;939;51.426;6.972;2024-02-26T19:40:00;8.30;99.90
1878;DHT22;939;51.426;6.972;2024-02-26T19:42:28;8.20;99.90
1878;DHT22;939;51.426;6.972;2024-02-26T19:44:55;8.20;99.90
1878;DHT22;939;51.426;6.972;2024-02-26T19:47:22;8.20;99.90
1878;DHT22;939;51.426;6.972;2024-02-26T19:49:49;8.20;99.90
1878;DHT22;939;51.426;6.972;2024-02-26T19:52:16;8.20;99.90
1878;DHT22;939;51.426;6.972;2024-02-26T19:54:46;8.20;99.90
1878;DHT22;939;51.426;6.972;2024-02-26T19:57:14;8.20;99.90
1878;DHT22;939;51.426;6.972;2024-02-26T19:59:42;8.10;99.90
1878;DHT22;939;51.426;6.972;2024-02-26T20:02:08;8.10;99.90
1878;DHT22;939;51.426;6.972;2024-02-26T20:04:35;8.10;99.90
1878;DHT22;939;51.426;6.972;2024-02-26T20:07:03;8.10;99.90
1878;DHT22;939;51.426;6.972;2024-02-26T20:09:30;8.10;99.90
1878;DHT22;939;51.426;6.972;2024-02-26T20:11:59;8.00;99.90
1878;DHT22;939;51.426;6.972;2024-02-26T20:14:27;8.10;99.90
1878;DHT22;939;51.426;6.972;2024-02-26T20:16:54;8.00;99.90
1878;DHT22;939;51.426;6.972;2024-02-26T20:19:21;8.00;99.90
1878;DHT22;939;51.426;6.972;2024-02-26T20:21:48;8.10;99.90
1878;DHT22;939;51.426;6.972;2024-02-26T20:24:15;8.20;99.90
1878;DHT22;939;51.426;6.972;2024-02-26T20:26:42;8.20;99.90
1878;DHT22;939;51.426;6.972;2024-02-26T20:29:12;8.10;99.90
1878;DHT22;939;51.426;6.972;2024-02-26T20:31:39;8.10;99.90
1878;DHT22;939;51.426;6.972;2024-02-26T20:34:06;8.30;99.90
1878;DHT22;939;51.426;6.972;2024-02-26T20:36:34;8.10;99.90
1878;DHT22;939;51.426;6.972;2024-02-26T20:39:01;8.00;99.90
1878;DHT22;939;51.426;6.972;2024-02-26T20:41:28;8.10;99.90
1878;DHT22;939;51.426;6.972;2024-02-26T20:43:55;8.10;99.90
1878;DHT22;939;51.426;6.972;2024-02-26T20:46:24;8.10;99.90
1878;DHT22;939;51.426;6.972;2024-02-26T20:48:51;8.10;99.90
1878;DHT22;939;51.426;6.972;2024-02-26T20:53:53;8.00;99.90
1878;DHT22;939;51.426;6.972;2024-02-26T20:56:22;7.90;99.90
1878;DHT22;939;51.426;6.972;2024-02-26T20:58:49;7.90;99.90
1878;DHT22;939;51.426;6.972;2024-02-26T21:01:15;8.00;99.90
1878;DHT22;939;51.426;6.972;2024-02-26T21:03:44;7.80;99.90
1878;DHT22;939;51.426;6.972;2024-02-26T21:06:11;7.90;99.90
1878;DHT22;939;51.426;6.972;2024-02-26T21:08:38;8.00;99.90
1878;DHT22;939;51.426;6.972;2024-02-26T21:11:05;7.90;99.90
1878;DHT22;939;51.426;6.972;2024-02-26T21:13:31;7.80;99.90
1878;DHT22;939;51.426;6.972;2024-02-26T21:15:58;7.90;99.90
1878;DHT22;939;51.426;6.972;2024-02-26T21:18:26;7.90;99.90
1878;DHT22;939;51.426;6.972;2024-02-26T21:20:54;7.80;99.90
1878;DHT22;939;51.426;6.972;2024-02-26T21:23:23;8.00;99.90
1878;DHT22;939;51.426;6.972;2024-02-26T21:25:50;7.80;99.90
1878;DHT22;939;51.426;6.972;2024-02-26T21:28:17;7.70;99.90
1878;DHT22;939;51.426;6.972;2024-02-26T21:30:45;7.80;99.90
1878;DHT22;939;51.426;6.972;2024-02-26T21:33:12;7.80;99.90
1878;DHT22;939;51.426;6.972;2024-02-26T21:35:39;7.80;99.90
1878;DHT22;939;51.426;6.972;2024-02-26T21:38:07;7.80;99.90
1878;DHT22;939;51.426;6.972;2024-02-26T21:40:34;7.80;99.90
1878;DHT22;939;51.426;6.972;2024-02-26T21:43:01;7.90;99.90
1878;DHT22;939;51.426;6.972;2024-02-26T21:45:28;7.90;99.90
1878;DHT22;939;51.426;6.972;2024-02-26T21:47:55;7.90;99.90
1878;DHT22;939;51.426;6.972;2024-02-26T21:50:22;7.80;99.90
1878;DHT22;939;51.426;6.972;2024-02-26T21:52:49;7.70;99.90
1878;DHT22;939;51.426;6.972;2024-02-26T21:55:17;7.70;99.90
1878;DHT22;939;51.426;6.972;2024-02-26T21:57:44;7.70;99.90
1878;DHT22;939;51.426;6.972;2024-02-26T22:00:12;7.70;99.90
1878;DHT22;939;51.426;6.972;2024-02-26T22:02:39;7.70;99.90
1878;DHT22;939;51.426;6.972;2024-02-26T22:05:07;7.80;99.90
1878;DHT22;939;51.426;6.972;2024-02-26T22:07:34;7.70;99.90
1878;DHT22;939;51.426;6.972;2024-02-26T22:10:01;7.60;99.90
1878;DHT22;939;51.426;6.972;2024-02-26T22:12:29;7.70;99.90
1878;DHT22;939;51.426;6.972;2024-02-26T22:14:56;7.70;99.90
1878;DHT22;939;51.426;6.972;2024-02-26T22:17:23;7.70;99.90
1878;DHT22;939;51.426;6.972;2024-02-26T22:19:49;7.70;99.90
1878;DHT22;939;51.426;6.972;2024-02-26T22:22:16;7.80;99.90
1878;DHT22;939;51.426;6.972;2024-02-26T22:24:43;7.90;99.90
1878;DHT22;939;51.426;6.972;2024-02-26T22:27:10;7.80;99.90
1878;DHT22;939;51.426;6.972;2024-02-26T22:29:38;7.80;99.90
1878;DHT22;939;51.426;6.972;2024-02-26T22:32:05;7.80;99.90
1878;DHT22;939;51.426;6.972;2024-02-26T22:34:32;7.90;99.90
1878;DHT22;939;51.426;6.972;2024-02-26T22:36:59;7.90;99.90
1878;DHT22;939;51.426;6.972;2024-02-26T22:39:26;7.80;99.90
1878;DHT22;939;51.426;6.972;2024-02-26T22:41:53;7.80;99.90
1878;DHT22;939;51.426;6.972;2024-02-26T22:44:20;7.80;99.90
1878;DHT22;939;51.426;6.972;2024-02-26T22:46:49;7.90;99.90
1878;DHT22;939;51.426;6.972;2024-02-26T22:49:16;7.90;99.90
1878;DHT22;939;51.426;6.972;2024-02-26T22:51:42;7.90;99.90
1878;DHT22;939;51.426;6.972;2024-02-26T22:54:09;7.80;99.90
1878;DHT22;939;51.426;6.972;2024-02-26T22:56:36;7.90;99.90
1878;DHT22;939;51.426;6.972;2024-02-26T22:59:03;7.70;99.90
1878;DHT22;939;51.426;6.972;2024-02-26T23:01:30;7.80;99.90
1878;DHT22;939;51.426;6.972;2024-02-26T23:03:59;7.90;99.90
1878;DHT22;939;51.426;6.972;2024-02-26T23:06:25;7.80;99.90
1878;DHT22;939;51.426;6.972;2024-02-26T23:08:52;7.80;99.90
1878;DHT22;939;51.426;6.972;2024-02-26T23:11:19;7.80;99.90
1878;DHT22;939;51.426;6.972;2024-02-26T23:13:46;7.80;99.90
1878;DHT22;939;51.426;6.972;2024-02-26T23:16:13;7.90;99.90
1878;DHT22;939;51.426;6.972;2024-02-26T23:18:40;7.90;99.90
1878;DHT22;939;51.426;6.972;2024-02-26T23:21:08;8.00;99.90
1878;DHT22;939;51.426;6.972;2024-02-26T23:23:35;7.90;99.90
1878;DHT22;939;51.426;6.972;2024-02-26T23:26:02;7.90;99.90
1878;DHT22;939;51.426;6.972;2024-02-26T23:28:29;7.70;99.90
1878;DHT22;939;51.426;6.972;2024-02-26T23:30:56;7.60;99.90
1878;DHT22;939;51.426;6.972;2024-02-26T23:33:23;7.70;99.90
1878;DHT22;939;51.426;6.972;2024-02-26T23:35:49;7.80;99.90
1878;DHT22;939;51.426;6.972;2024-02-26T23:38:18;7.80;99.90
1878;DHT22;939;51.426;6.972;2024-02-26T23:40:45;7.70;99.90
1878;DHT22;939;51.426;6.972;2024-02-26T23:43:11;7.70;99.90
1878;DHT22;939;51.426;6.972;2024-02-26T23:45:38;7.80;99.90
1878;DHT22;939;51.426;6.972;2024-02-26T23:48:05;7.80;99.90
1878;DHT22;939;51.426;6.972;2024-02-26T23:50:33;7.60;99.90
1878;DHT22;939;51.426;6.972;2024-02-26T23:53:00;7.70;99.90
1878;DHT22;939;51.426;6.972;2024-02-26T23:55:29;7.70;99.90
1878;DHT22;939;51.426;6.972;2024-02-26T23:57:57;7.70;99.90
